Terminal Aerodrome Forecast
Issued by NWS

Home | Current Version | Previous Version | Text Only | Print | Product List | Glossary On
Versions: 1 2 3 4 5 6 7 8 9 10 11 12
528
FTUS45 KRIW 101720
TAFCPR
TAF
KCPR 101720Z 1018/1118 22025G35KT P6SM FEW200
     FM102200 24015G20KT P6SM BKN200
     FM111500 22015G25KT P6SM BKN200=

USA.gov is the U.S. government's official web portal to all federal, state and local government web resources and services.